createdAt,value
2022-09-29T00:14:48.899Z,97662.09
2022-09-29T00:17:16.408Z,97669.66
2022-09-29T00:19:43.515Z,97672.69
2022-09-29T00:22:10.747Z,97674.56
2022-09-29T00:24:38.139Z,97660.97
2022-09-29T00:27:05.234Z,97660.87
2022-09-29T00:29:32.362Z,97668.16
2022-09-29T00:31:59.824Z,97659.09
2022-09-29T00:34:26.970Z,97667.94
2022-09-29T00:36:54.201Z,97662.47
2022-09-29T00:39:21.593Z,97658.69
2022-09-29T00:41:48.732Z,97663.50
2022-09-29T00:44:15.899Z,97656.25
2022-09-29T00:46:46.457Z,97647.47
2022-09-29T00:49:25.892Z,97644.88
2022-09-29T00:51:55.092Z,97659.63
2022-09-29T00:54:22.221Z,97663.19
2022-09-29T00:56:49.326Z,97655.88
2022-09-29T00:59:18.378Z,97667.97
2022-09-29T01:01:45.524Z,97677.13
2022-09-29T01:04:14.286Z,97674.94
2022-09-29T01:06:54.516Z,97667.69
2022-09-29T01:09:23.905Z,97658.09
2022-09-29T01:11:55.102Z,97652.19
2022-09-29T01:14:22.233Z,97641.41
2022-09-29T01:16:49.346Z,97638.00
2022-09-29T01:19:17.775Z,97650.91
2022-09-29T01:21:50.794Z,97647.13
2022-09-29T01:24:21.250Z,97651.28
2022-09-29T01:26:55.942Z,97654.09
2022-09-29T01:29:46.135Z,97638.69
2022-09-29T01:32:20.831Z,97644.81
2022-09-29T01:35:00.377Z,97641.56
2022-09-29T01:37:31.848Z,97648.25
2022-09-29T01:40:15.681Z,97638.69
2022-09-29T01:42:53.050Z,97624.91
2022-09-29T01:45:20.363Z,97629.03
2022-09-29T01:47:48.781Z,97635.47
2022-09-29T01:50:20.674Z,97626.28
2022-09-29T01:52:51.971Z,97620.56
2022-09-29T01:55:19.998Z,97626.12
2022-09-29T01:57:51.291Z,97619.16
2022-09-29T02:00:19.093Z,97613.38
2022-09-29T02:02:47.197Z,97622.75
2022-09-29T02:05:16.281Z,97615.84
2022-09-29T02:07:44.420Z,97617.97
2022-09-29T02:10:31.085Z,97622.53
2022-09-29T02:12:58.231Z,97616.97
2022-09-29T02:15:27.202Z,97613.19
2022-09-29T02:17:54.895Z,97618.69
2022-09-29T02:20:22.589Z,97617.44
2022-09-29T02:22:50.004Z,97619.53
2022-09-29T02:25:17.482Z,97615.47
2022-09-29T02:27:44.915Z,97618.22
2022-09-29T02:30:12.553Z,97617.16
2022-09-29T02:32:39.803Z,97627.16
2022-09-29T02:35:07.456Z,97639.44
2022-09-29T02:37:40.898Z,97649.94
2022-09-29T02:40:10.479Z,97655.97
2022-09-29T02:42:43.723Z,97653.31
2022-09-29T02:45:40.128Z,97654.66
2022-09-29T02:48:26.452Z,97664.31
2022-09-29T02:50:59.337Z,97661.28
2022-09-29T02:53:29.746Z,97662.81
2022-09-29T02:56:12.641Z,97664.41
2022-09-29T02:58:48.329Z,97662.69
2022-09-29T03:01:16.845Z,97663.56
2022-09-29T03:03:44.652Z,97653.41
2022-09-29T03:06:11.820Z,97648.69
2022-09-29T03:08:38.963Z,97659.31
2022-09-29T03:11:06.355Z,97651.13
2022-09-29T03:13:33.476Z,97648.72
2022-09-29T03:16:00.698Z,97643.25
2022-09-29T03:18:28.404Z,97646.56
2022-09-29T03:20:55.510Z,97651.72
2022-09-29T03:23:22.988Z,97651.72
2022-09-29T03:25:50.396Z,97650.50
2022-09-29T03:28:17.519Z,97650.41
2022-09-29T03:30:45.234Z,97644.44
2022-09-29T03:33:12.680Z,97648.53
2022-09-29T03:35:43.725Z,97638.59
2022-09-29T03:38:11.673Z,97640.41
2022-09-29T03:40:39.115Z,97629.00
2022-09-29T03:43:06.424Z,97619.00
2022-09-29T03:45:34.748Z,97617.34
2022-09-29T03:48:02.157Z,97622.66
2022-09-29T03:50:29.279Z,97622.41
2022-09-29T03:52:58.359Z,97611.72
2022-09-29T03:55:25.767Z,97607.09
2022-09-29T03:57:52.902Z,97605.25
2022-09-29T04:00:20.029Z,97613.88
2022-09-29T04:02:47.397Z,97613.22
2022-09-29T04:05:14.514Z,97607.16
2022-09-29T04:07:42.716Z,97601.47
2022-09-29T04:10:10.114Z,97606.31
2022-09-29T04:12:37.238Z,97603.62
2022-09-29T04:15:04.613Z,97602.34
2022-09-29T04:17:31.975Z,97600.37
2022-09-29T04:19:59.098Z,97603.19
2022-09-29T04:22:26.239Z,97601.03
2022-09-29T04:24:53.665Z,97603.50
2022-09-29T04:27:20.817Z,97595.59
2022-09-29T04:29:48.000Z,97599.06
2022-09-29T04:32:15.378Z,97600.22
2022-09-29T04:34:43.073Z,97592.47
2022-09-29T04:37:13.178Z,97595.47
2022-09-29T04:39:40.568Z,97602.25
2022-09-29T04:42:08.156Z,97600.22
2022-09-29T04:44:35.269Z,97602.94
2022-09-29T04:47:02.743Z,97603.88
2022-09-29T04:49:29.922Z,97606.63
2022-09-29T04:51:57.178Z,97607.87
2022-09-29T04:54:24.640Z,97608.50
2022-09-29T04:56:51.755Z,97616.13
2022-09-29T04:59:18.919Z,97615.81
2022-09-29T05:01:46.365Z,97616.28
2022-09-29T05:04:13.634Z,97618.06
2022-09-29T05:06:40.825Z,97627.00
2022-09-29T05:09:08.644Z,97624.56
2022-09-29T05:11:35.802Z,97623.47
2022-09-29T05:14:02.910Z,97624.81
2022-09-29T05:16:30.486Z,97637.06
2022-09-29T05:18:57.667Z,97641.31
2022-09-29T05:21:29.089Z,97640.22
2022-09-29T05:23:56.976Z,97633.38
2022-09-29T05:26:24.103Z,97632.75
2022-09-29T05:28:51.197Z,97622.87
2022-09-29T05:31:19.148Z,97644.53
2022-09-29T05:33:46.356Z,97638.59
2022-09-29T05:36:13.510Z,97640.81
2022-09-29T05:38:40.979Z,97642.47
2022-09-29T05:41:12.201Z,97648.28
2022-09-29T05:43:39.934Z,97645.31
2022-09-29T05:46:08.714Z,97648.31
2022-09-29T05:48:35.952Z,97651.25
2022-09-29T05:51:20.547Z,97658.25
2022-09-29T05:53:50.230Z,97664.00
2022-09-29T05:56:19.192Z,97668.22
2022-09-29T05:58:46.273Z,97665.47
2022-09-29T06:01:21.178Z,97664.84
2022-09-29T06:03:48.650Z,97658.81
2022-09-29T06:06:17.712Z,97667.97
2022-09-29T06:08:44.898Z,97669.25
2022-09-29T06:11:20.889Z,97672.34
2022-09-29T06:13:48.559Z,97666.38
2022-09-29T06:16:16.660Z,97674.66
2022-09-29T06:18:43.838Z,97675.72
2022-09-29T06:21:12.231Z,97675.41
2022-09-29T06:23:39.728Z,97673.72
2022-09-29T06:26:07.853Z,97683.84
2022-09-29T06:28:34.947Z,97684.97
2022-09-29T06:31:03.539Z,97690.19
2022-09-29T06:33:31.176Z,97677.69
2022-09-29T06:36:17.132Z,97681.41
2022-09-29T06:38:45.380Z,97703.16
2022-09-29T06:41:12.494Z,97699.91
2022-09-29T06:43:39.616Z,97702.00
2022-09-29T06:46:07.287Z,97708.34
2022-09-29T06:48:34.435Z,97710.22
2022-09-29T06:51:09.442Z,97710.06
2022-09-29T06:53:38.892Z,97707.47
2022-09-29T06:56:06.564Z,97706.84
2022-09-29T06:58:34.105Z,97705.72
2022-09-29T07:01:01.966Z,97697.63
2022-09-29T07:03:29.686Z,97708.16
2022-09-29T07:08:45.564Z,97722.34
2022-09-29T07:11:12.673Z,97729.72
2022-09-29T07:13:39.793Z,97723.03
2022-09-29T07:16:07.856Z,97731.38
2022-09-29T07:18:35.510Z,97718.97
2022-09-29T07:21:02.651Z,97724.88
2022-09-29T07:23:30.022Z,97722.91
2022-09-29T07:25:57.135Z,97722.31
2022-09-29T07:28:24.269Z,97736.87
2022-09-29T07:31:12.736Z,97733.88
2022-09-29T07:33:41.964Z,97731.81
2022-09-29T07:36:09.551Z,97734.09
2022-09-29T07:38:36.734Z,97743.06
2022-09-29T07:41:04.745Z,97748.88
2022-09-29T07:43:32.413Z,97752.37
2022-09-29T07:46:02.643Z,97755.72
2022-09-29T07:48:31.979Z,97756.81
2022-09-29T07:51:02.793Z,97757.22
2022-09-29T07:53:30.508Z,97759.97
2022-09-29T07:56:02.219Z,97767.37
2022-09-29T07:58:32.316Z,97765.47
2022-09-29T08:00:59.785Z,97760.37
2022-09-29T08:03:27.393Z,97753.59
2022-09-29T08:05:54.908Z,97762.00
2022-09-29T08:08:22.021Z,97755.84
2022-09-29T08:10:53.191Z,97763.62
2022-09-29T08:13:20.893Z,97764.53
2022-09-29T08:15:48.023Z,97761.38
2022-09-29T08:18:15.421Z,97765.06
2022-09-29T08:20:42.546Z,97773.16
2022-09-29T08:23:09.654Z,97770.94
2022-09-29T08:25:37.037Z,97771.16
2022-09-29T08:28:04.150Z,97771.75
2022-09-29T08:30:31.266Z,97774.97
2022-09-29T08:32:58.901Z,97788.91
2022-09-29T08:35:26.282Z,97782.63
2022-09-29T08:37:55.180Z,97785.41
2022-09-29T08:40:22.675Z,97786.75
2022-09-29T08:42:49.853Z,97773.19
2022-09-29T08:45:23.883Z,97770.56
2022-09-29T08:47:51.373Z,97774.72
2022-09-29T08:50:32.154Z,97775.03
2022-09-29T08:53:20.895Z,97773.16
2022-09-29T08:55:54.706Z,97781.41
2022-09-29T08:58:22.153Z,97790.25
2022-09-29T09:01:04.680Z,97803.81
2022-09-29T09:03:50.697Z,97799.16
2022-09-29T09:06:19.771Z,97799.22
2022-09-29T09:08:53.152Z,97794.53
2022-09-29T09:11:33.523Z,97807.84
2022-09-29T09:14:08.028Z,97808.41
2022-09-29T09:16:54.022Z,97794.22
2022-09-29T09:19:30.430Z,97799.66
2022-09-29T09:22:08.662Z,97802.84
2022-09-29T09:24:49.598Z,97823.94
2022-09-29T09:27:20.044Z,97815.56
2022-09-29T09:29:47.405Z,97820.16
2022-09-29T09:32:16.150Z,97813.91
2022-09-29T09:34:45.506Z,97823.16
2022-09-29T09:37:20.843Z,97817.88
2022-09-29T09:39:57.050Z,97818.50
2022-09-29T09:42:29.312Z,97819.19
2022-09-29T09:45:01.506Z,97821.41
2022-09-29T09:47:29.691Z,97828.91
2022-09-29T09:50:00.632Z,97824.53
2022-09-29T09:52:37.443Z,97827.03
2022-09-29T09:55:05.571Z,97823.63
2022-09-29T09:57:54.654Z,97823.63
2022-09-29T10:00:22.617Z,97819.31
2022-09-29T10:02:50.714Z,97819.50
2022-09-29T10:05:40.037Z,97819.47
2022-09-29T10:08:09.974Z,97820.81
2022-09-29T10:10:41.347Z,97815.09
2022-09-29T10:13:15.278Z,97819.75
2022-09-29T10:15:42.386Z,97825.62
2022-09-29T10:18:17.294Z,97819.91
2022-09-29T10:20:44.690Z,97816.97
2022-09-29T10:23:20.711Z,97820.63
2022-09-29T10:25:51.934Z,97827.88
2022-09-29T10:28:19.208Z,97823.13
2022-09-29T10:30:46.460Z,97826.84
2022-09-29T10:33:14.790Z,97823.22
2022-09-29T10:35:42.334Z,97828.19
2022-09-29T10:38:17.199Z,97824.62
2022-09-29T10:40:58.901Z,97828.25
2022-09-29T10:43:27.831Z,97826.66
2022-09-29T10:45:58.652Z,97817.59
2022-09-29T10:48:26.480Z,97819.69
2022-09-29T10:50:56.824Z,97832.44
2022-09-29T10:53:40.473Z,97828.03
2022-09-29T10:56:17.939Z,97832.91
2022-09-29T10:58:58.867Z,97831.34
2022-09-29T11:01:31.930Z,97840.28
2022-09-29T11:04:06.063Z,97840.31
2022-09-29T11:06:40.451Z,97840.66
2022-09-29T11:09:13.606Z,97827.44
2022-09-29T11:11:56.578Z,97836.00
2022-09-29T11:14:36.634Z,97835.16
2022-09-29T11:17:23.521Z,97849.59
2022-09-29T11:19:51.905Z,97838.75
2022-09-29T11:22:25.383Z,97838.59
2022-09-29T11:24:58.628Z,97844.16
2022-09-29T11:27:41.299Z,97849.13
2022-09-29T11:30:15.996Z,97852.25
2022-09-29T11:32:57.782Z,97843.97
2022-09-29T11:35:36.633Z,97841.34
2022-09-29T11:38:16.731Z,97837.28
2022-09-29T11:40:48.660Z,97836.72
2022-09-29T11:43:18.761Z,97841.53
2022-09-29T11:45:49.148Z,97851.84
2022-09-29T11:48:35.295Z,97841.59
2022-09-29T11:51:02.666Z,97842.56
2022-09-29T11:53:30.126Z,97851.63
2022-09-29T11:56:16.110Z,97858.56
2022-09-29T11:58:47.064Z,97862.09
2022-09-29T12:01:32.830Z,97856.31
2022-09-29T12:04:00.135Z,97865.47
2022-09-29T12:06:45.559Z,97866.03
2022-09-29T12:09:21.892Z,97864.19
2022-09-29T12:12:18.863Z,97862.38
2022-09-29T12:14:57.185Z,97850.41
2022-09-29T12:17:24.329Z,97847.47
2022-09-29T12:19:55.800Z,97848.88
2022-09-29T12:22:22.925Z,97854.03
2022-09-29T12:24:56.122Z,97854.19
2022-09-29T12:27:26.547Z,97857.56
2022-09-29T12:29:55.388Z,97855.88
2022-09-29T12:32:36.721Z,97845.66
2022-09-29T12:35:36.677Z,97845.78
2022-09-29T12:38:08.927Z,97859.97
2022-09-29T12:40:39.525Z,97874.25
2022-09-29T12:43:15.754Z,97884.31
2022-09-29T12:45:57.409Z,97897.13
2022-09-29T12:48:27.642Z,97895.09
2022-09-29T12:51:18.382Z,97899.06
2022-09-29T12:53:52.136Z,97888.41
2022-09-29T12:56:25.493Z,97899.97
2022-09-29T12:58:54.422Z,97898.91
2022-09-29T13:01:27.924Z,97901.94
2022-09-29T13:04:04.478Z,97891.34
2022-09-29T13:06:36.029Z,97885.31
2022-09-29T13:09:06.216Z,97883.38
2022-09-29T13:11:59.798Z,97889.00
2022-09-29T13:14:26.941Z,97881.31
2022-09-29T13:16:54.918Z,97878.62
2022-09-29T13:19:39.348Z,97874.22
2022-09-29T13:22:15.051Z,97883.31
2022-09-29T13:24:47.686Z,97890.66
2022-09-29T13:27:31.891Z,97883.22
2022-09-29T13:30:17.935Z,97891.81
2022-09-29T13:32:46.795Z,97889.59
2022-09-29T13:35:17.343Z,97895.16
2022-09-29T13:37:46.317Z,97884.94
2022-09-29T13:40:18.612Z,97889.28
2022-09-29T13:42:47.205Z,97899.03
2022-09-29T13:45:20.720Z,97895.88
2022-09-29T13:47:49.637Z,97892.59
2022-09-29T13:50:35.661Z,97891.34
2022-09-29T13:53:21.909Z,97884.47
2022-09-29T13:56:01.690Z,97883.19
2022-09-29T13:58:29.876Z,97895.84
2022-09-29T14:00:58.695Z,97892.09
2022-09-29T14:03:44.374Z,97888.69
2022-09-29T14:06:40.196Z,97899.28
2022-09-29T14:09:05.720Z,97896.25
2022-09-29T14:11:36.849Z,97902.69
2022-09-29T14:14:21.336Z,97905.91
2022-09-29T14:16:53.695Z,97893.50
2022-09-29T14:19:40.160Z,97904.47
2022-09-29T14:22:26.264Z,97896.50
2022-09-29T14:24:55.824Z,97901.50
2022-09-29T14:27:27.872Z,97902.69
2022-09-29T14:29:56.947Z,97914.97
2022-09-29T14:32:32.712Z,97919.41
2022-09-29T14:35:01.048Z,97917.25
2022-09-29T14:37:28.173Z,97917.25
2022-09-29T14:40:13.890Z,97922.31
2022-09-29T14:42:41.277Z,97935.09
2022-09-29T14:45:27.023Z,97934.34
2022-09-29T14:48:21.068Z,97933.94
2022-09-29T14:51:17.207Z,97941.56
2022-09-29T14:53:47.599Z,97935.09
2022-09-29T14:56:25.376Z,97923.25
2022-09-29T14:59:25.355Z,97925.19
2022-09-29T15:02:11.994Z,97923.56
2022-09-29T15:04:39.579Z,97932.59
2022-09-29T15:07:10.249Z,97937.47
2022-09-29T15:09:37.481Z,97931.44
2022-09-29T15:12:14.158Z,97918.09
2022-09-29T15:14:42.162Z,97916.66
2022-09-29T15:17:12.680Z,97918.56
2022-09-29T15:19:45.690Z,97925.56
2022-09-29T15:22:25.408Z,97929.91
2022-09-29T15:25:11.653Z,97938.53
2022-09-29T15:27:39.330Z,97937.84
2022-09-29T15:30:07.645Z,97936.72
2022-09-29T15:32:34.819Z,97939.25
2022-09-29T15:35:03.705Z,97949.69
2022-09-29T15:37:53.971Z,97952.72
2022-09-29T15:40:22.879Z,97952.91
2022-09-29T15:42:52.074Z,97949.75
2022-09-29T15:45:22.136Z,97950.50
2022-09-29T15:47:50.339Z,97951.09
2022-09-29T15:50:22.025Z,97957.63
2022-09-29T15:52:50.470Z,97961.31
2022-09-29T15:55:18.655Z,97956.13
2022-09-29T15:57:58.520Z,97961.31
2022-09-29T16:00:28.936Z,97972.19
2022-09-29T16:03:03.815Z,97978.16
2022-09-29T16:05:32.594Z,97983.44
2022-09-29T16:08:03.193Z,97995.63
2022-09-29T16:10:30.949Z,97980.97
2022-09-29T16:13:08.677Z,97992.78
2022-09-29T16:15:37.066Z,97987.28
2022-09-29T16:18:24.530Z,97996.09
2022-09-29T16:20:51.936Z,98004.41
2022-09-29T16:23:24.911Z,98005.00
2022-09-29T16:26:07.658Z,97995.91
2022-09-29T16:28:36.195Z,97991.44
2022-09-29T16:31:25.844Z,97986.00
2022-09-29T16:33:56.871Z,97994.69
2022-09-29T16:36:24.923Z,97988.84
2022-09-29T16:38:53.552Z,97980.38
2022-09-29T16:41:27.943Z,97990.31
2022-09-29T16:44:10.935Z,97994.81
2022-09-29T16:46:45.773Z,97987.78
2022-09-29T16:49:14.668Z,97983.06
2022-09-29T16:51:43.124Z,97979.03
2022-09-29T16:54:14.117Z,97984.56
2022-09-29T16:56:41.663Z,97984.22
2022-09-29T16:59:12.700Z,97975.16
2022-09-29T17:01:41.330Z,97970.41
2022-09-29T17:04:09.363Z,97975.19
2022-09-29T17:06:36.614Z,97973.59
2022-09-29T17:09:05.217Z,97988.50
2022-09-29T17:11:32.746Z,97994.41
2022-09-29T17:14:00.013Z,97996.31
2022-09-29T17:16:27.221Z,98006.50
2022-09-29T17:18:56.251Z,98001.88
2022-09-29T17:21:23.872Z,97990.34
2022-09-29T17:23:51.000Z,97996.59
2022-09-29T17:26:42.445Z,97999.22
2022-09-29T17:29:09.826Z,97994.69
2022-09-29T17:31:37.361Z,98007.13
2022-09-29T17:34:07.836Z,98008.94
2022-09-29T17:36:35.572Z,97997.16
2022-09-29T17:39:03.051Z,97994.97
2022-09-29T17:41:30.196Z,97993.69
2022-09-29T17:43:57.456Z,97997.94
2022-09-29T17:46:24.935Z,98004.69
2022-09-29T17:48:52.114Z,98013.16
2022-09-29T17:51:19.205Z,98017.31
2022-09-29T17:53:47.186Z,98008.03
2022-09-29T17:56:21.766Z,98015.34
2022-09-29T17:58:49.396Z,98018.06
2022-09-29T18:01:20.255Z,98020.63
2022-09-29T18:03:47.982Z,98013.56
2022-09-29T18:06:21.250Z,98006.16
2022-09-29T18:08:53.718Z,98000.12
2022-09-29T18:11:22.113Z,98000.56
2022-09-29T18:13:49.523Z,98017.78
2022-09-29T18:16:18.510Z,98025.56
2022-09-29T18:18:45.691Z,98024.19
2022-09-29T18:21:13.418Z,98027.78
2022-09-29T18:23:41.375Z,98033.31
2022-09-29T18:26:11.150Z,98043.34
2022-09-29T18:28:38.985Z,98045.56
2022-09-29T18:31:12.324Z,98042.78
2022-09-29T18:33:40.156Z,98038.19
2022-09-29T18:36:08.958Z,98036.63
2022-09-29T18:38:36.120Z,98048.94
2022-09-29T18:41:04.881Z,98041.97
2022-09-29T18:43:32.432Z,98050.87
2022-09-29T18:45:59.662Z,98057.41
2022-09-29T18:48:27.375Z,98063.44
2022-09-29T18:50:56.785Z,98072.81
2022-09-29T18:53:24.222Z,98081.69
2022-09-29T18:55:55.972Z,98089.50
2022-09-29T18:58:23.354Z,98088.06
2022-09-29T19:00:55.907Z,98091.84
2022-09-29T19:03:23.743Z,98099.22
2022-09-29T19:05:51.099Z,98102.44
2022-09-29T19:08:18.952Z,98101.75
2022-09-29T19:10:49.826Z,98100.75
2022-09-29T19:13:17.319Z,98099.31
2022-09-29T19:15:45.212Z,98102.09
2022-09-29T19:18:15.173Z,98114.69
2022-09-29T19:20:42.318Z,98117.78
2022-09-29T19:23:09.459Z,98113.47
2022-09-29T19:25:37.455Z,98119.75
2022-09-29T19:28:05.644Z,98111.28
2022-09-29T19:30:34.311Z,98103.50
2022-09-29T19:33:01.671Z,98103.66
2022-09-29T19:35:29.286Z,98110.16
2022-09-29T19:37:59.080Z,98118.09
2022-09-29T19:40:31.546Z,98116.16
2022-09-29T19:43:02.490Z,98116.09
2022-09-29T19:45:29.914Z,98121.03
2022-09-29T19:47:57.487Z,98123.16
2022-09-29T19:50:43.585Z,98114.75
2022-09-29T19:53:11.004Z,98108.38
2022-09-29T19:55:39.188Z,98096.13
2022-09-29T19:58:07.135Z,98111.13
2022-09-29T20:00:35.312Z,98105.50
2022-09-29T20:03:03.197Z,98111.47
2022-09-29T20:05:30.479Z,98104.75
2022-09-29T20:07:57.902Z,98100.56
2022-09-29T20:10:28.496Z,98111.47
2022-09-29T20:12:56.014Z,98109.13
2022-09-29T20:15:23.480Z,98112.41
2022-09-29T20:17:52.149Z,98122.12
2022-09-29T20:20:20.264Z,98126.84
2022-09-29T20:22:47.378Z,98130.19
2022-09-29T20:25:14.762Z,98147.16
2022-09-29T20:27:41.919Z,98145.25
2022-09-29T20:30:09.216Z,98136.84
2022-09-29T20:32:36.628Z,98138.34
2022-09-29T20:35:03.993Z,98132.13
2022-09-29T20:37:31.105Z,98130.94
2022-09-29T20:39:59.077Z,98126.78
2022-09-29T20:42:26.266Z,98136.38
2022-09-29T20:44:55.158Z,98145.69
2022-09-29T20:47:25.654Z,98155.13
2022-09-29T20:51:39.744Z,98154.06
2022-09-29T20:54:07.220Z,98154.06
2022-09-29T20:56:41.547Z,98159.50
2022-09-29T20:59:12.956Z,98161.03
2022-09-29T21:01:40.326Z,98157.03
2022-09-29T21:04:11.661Z,98159.94
2022-09-29T21:06:41.032Z,98168.19
2022-09-29T21:09:09.753Z,98171.09
2022-09-29T21:11:40.201Z,98181.03
2022-09-29T21:14:09.242Z,98210.53
2022-09-29T21:16:36.581Z,98217.50
2022-09-29T21:19:04.286Z,98244.59
2022-09-29T21:21:31.667Z,98302.19
2022-09-29T21:23:59.695Z,98327.31
2022-09-29T21:26:26.809Z,98325.16
2022-09-29T21:28:55.808Z,98284.66
2022-09-29T21:31:23.730Z,98282.78
2022-09-29T21:33:51.980Z,98280.44
2022-09-29T21:36:19.332Z,98271.84
2022-09-29T21:38:46.528Z,98243.16
2022-09-29T21:41:24.200Z,98229.03
2022-09-29T21:43:53.035Z,98216.34
2022-09-29T21:46:21.244Z,98211.53
2022-09-29T21:48:52.010Z,98208.84
2022-09-29T21:51:23.216Z,98208.97
2022-09-29T21:53:50.860Z,98209.91
2022-09-29T21:56:22.618Z,98195.44
2022-09-29T21:58:50.281Z,98191.22
2022-09-29T22:01:17.618Z,98193.69
2022-09-29T22:03:45.897Z,98194.03
2022-09-29T22:06:20.301Z,98192.06
2022-09-29T22:08:47.707Z,98189.47
2022-09-29T22:11:15.687Z,98184.03
2022-09-29T22:13:42.889Z,98177.66
2022-09-29T22:16:11.360Z,98178.91
2022-09-29T22:18:42.280Z,98169.91
2022-09-29T22:21:10.977Z,98169.47
2022-09-29T22:23:38.115Z,98167.50
2022-09-29T22:26:05.651Z,98176.44
2022-09-29T22:28:33.067Z,98186.72
2022-09-29T22:31:08.685Z,98176.75
2022-09-29T22:33:37.302Z,98174.63
2022-09-29T22:36:05.437Z,98172.63
2022-09-29T22:38:36.226Z,98174.31
2022-09-29T22:41:10.356Z,98179.31
2022-09-29T22:43:37.728Z,98184.59
2022-09-29T22:46:08.396Z,98188.25
2022-09-29T22:48:35.808Z,98208.38
2022-09-29T22:51:03.296Z,98206.41
2022-09-29T22:53:30.752Z,98205.94
2022-09-29T22:55:57.907Z,98207.16
2022-09-29T22:58:25.144Z,98214.22
2022-09-29T23:01:06.494Z,98202.94
2022-09-29T23:03:34.614Z,98206.81
2022-09-29T23:06:02.286Z,98225.28
2022-09-29T23:08:30.573Z,98245.09
2022-09-29T23:10:57.891Z,98249.03
2022-09-29T23:13:26.051Z,98258.16
2022-09-29T23:15:54.769Z,98279.22
2022-09-29T23:18:21.975Z,98270.25
2022-09-29T23:20:49.532Z,98251.50
2022-09-29T23:23:16.660Z,98274.94
2022-09-29T23:25:47.094Z,98294.34
2022-09-29T23:28:14.500Z,98315.50
2022-09-29T23:30:41.597Z,98317.44
2022-09-29T23:33:08.917Z,98305.75
2022-09-29T23:35:36.301Z,98298.12
2022-09-29T23:38:22.153Z,98304.69
2022-09-29T23:40:49.553Z,98286.81
2022-09-29T23:43:16.682Z,98251.91
2022-09-29T23:45:43.815Z,98241.00
2022-09-29T23:48:11.172Z,98247.13
2022-09-29T23:50:38.279Z,98243.53
2022-09-29T23:53:05.469Z,98255.72
2022-09-29T23:55:32.918Z,98255.16
2022-09-29T23:58:00.905Z,98247.00
